Latest Weather Observations for Lord Howe Island

IDN60801

Issued at 5:05 pm EDT Thursday 29 January 2015 (issued every 30 minutes, with the page automatically refreshed every 10 minutes)

About weather observations | Map of weather stations | Latest weather observations for NSW | Other Formats
Station Details ID: 200839 Name: LORD HOWE ISLAND AERO Lat: -31.54 Lon: 159.08 Height: 5.0 m
Data from the previous 72 hours. | See also: Recent months at Lord Howe Island
Date/Time
EDT
Temp
°C
App
Temp
°C
Dew
Point
Rel
Hum
%
Delta-T
°C
Wind Press
QNH
hPa
Press
MSL
hPa
Rain
since 9 am
mm
Dir
 
Spd
km/h
Gust
km/h
Spd
kts
Gust
kts
29/05:00pm 24.0 21.4 16.9 64 4.4 SW 26 37 14 20 1004.3 - 0.0
29/04:30pm 24.2 20.9 16.9 63 4.5 SW 30 41 16 22 1004.2 - 0.0
29/04:00pm 24.2 21.2 16.9 63 4.5 SW 28 41 15 22 1004.2 - 0.0
29/03:30pm 24.2 20.9 17.1 64 4.4 SW 30 39 16 21 1004.1 - 0.0
29/03:00pm 24.0 21.2 17.2 65 4.2 SW 28 39 15 21 1004.5 1004.5 0.0
29/02:30pm 24.8 21.5 18.0 66 4.3 WSW 32 44 17 24 1004.4 - 0.0
29/02:00pm 24.6 21.5 17.6 65 4.4 WSW 30 43 16 23 1004.4 - 0.0
29/01:00pm 24.7 20.9 17.1 62 4.7 WSW 33 44 18 24 1004.4 - 0.0
29/12:30pm 24.0 21.4 17.8 68 3.9 SW 28 39 15 21 1004.4 - 0.0
29/12:00pm 24.7 21.2 18.0 66 4.2 WSW 33 44 18 24 1004.1 1004.1 0.0
29/11:30am 24.5 22.1 18.2 68 4.0 SW 28 37 15 20 1004.0 - 0.0
29/11:00am 23.4 21.0 18.2 72 3.3 SW 28 39 15 21 1004.3 - 0.0
29/10:30am 23.6 21.5 18.9 75 3.0 SW 28 41 15 22 1004.2 - 0.0
29/10:00am 23.2 20.2 19.1 78 2.6 WSW 33 46 18 25 1004.1 - 0.0
29/09:00am 23.5 22.1 18.9 75 2.9 SW 24 32 13 17 1003.6 1003.6 4.0
29/08:30am 23.2 21.6 19.1 78 2.6 SW 26 35 14 19 1003.7 - 4.0
29/08:16am 22.2 20.3 19.4 84 1.8 SW 28 46 15 25 1003.6 - 4.0
29/08:00am 22.7 21.9 19.3 81 2.2 SW 22 33 12 18 1003.2 - 4.0
29/07:30am 21.9 19.9 19.1 84 1.8 SW 28 39 15 21 1003.3 - 4.0
29/07:04am 22.0 20.9 19.5 86 1.6 SSW 24 37 13 20 1003.1 - 4.0
29/07:00am 21.9 20.5 19.6 87 1.5 SSW 26 39 14 21 1003.0 - 4.0
29/06:30am 22.3 20.6 19.8 86 1.6 SW 28 39 15 21 1002.7 - 4.0
29/06:05am 22.5 20.2 20.2 87 1.5 SW 32 50 17 27 1002.0 - 4.0
29/05:30am 22.3 20.9 20.5 89 1.2 SW 28 39 15 21 1001.7 - 3.8
29/05:17am 21.9 19.7 20.4 91 1.0 SW 32 46 17 25 1001.6 - 3.8
29/05:00am 22.3 20.4 20.9 92 0.9 SW 32 44 17 24 1001.5 - 3.8
29/04:38am 22.9 21.1 20.4 86 1.6 SW 30 43 16 23 1001.2 - 3.8
29/04:34am 22.8 20.6 20.3 86 1.6 SW 32 44 17 24 1001.2 - 3.8
29/04:30am 22.8 20.5 20.2 85 1.7 SW 32 44 17 24 1001.1 - 3.8
29/04:24am 22.8 21.0 20.3 86 1.6 SW 30 41 16 22 1000.9 - 3.8
29/04:13am 22.8 21.6 20.8 88 1.3 SW 28 37 15 20 1000.7 - 3.8
29/04:11am 22.7 21.4 20.6 88 1.4 SW 28 37 15 20 1000.8 - 3.8
29/04:10am 22.7 21.4 20.6 88 1.4 SW 28 37 15 20 1000.7 - 3.8
29/04:00am 22.5 21.2 20.7 89 1.2 SW 28 39 15 21 1000.6 - 3.8
29/03:45am 22.1 21.6 20.7 92 0.9 SW 24 39 13 21 1000.9 - 3.4
29/03:30am 22.5 22.0 20.8 90 1.1 SW 24 37 13 20 1001.0 - 3.4
29/03:14am 22.8 21.8 20.5 87 1.5 SW 26 37 14 20 1001.0 - 3.4
29/03:13am 22.8 22.3 20.7 88 1.4 SW 24 37 13 20 1001.0 - 3.4
29/03:00am 22.8 21.3 20.2 85 1.7 SW 28 39 15 21 1001.2 1001.2 3.4
29/02:30am 22.7 21.9 20.9 89 1.2 SW 26 35 14 19 1001.0 - 3.4
29/02:02am 23.0 23.2 20.5 86 1.6 SW 20 30 11 16 1001.2 - 3.4
29/02:00am 22.9 22.7 20.6 87 1.5 SW 22 30 12 16 1001.2 - 3.4
29/01:30am 22.8 23.0 20.5 87 1.5 SW 20 32 11 17 1001.4 - 3.4
29/01:00am 22.7 22.4 20.4 87 1.5 SW 22 35 12 19 1001.7 - 3.4
29/12:58am 22.8 22.6 20.5 87 1.5 SW 22 35 12 19 1001.7 - 3.4
29/12:30am 22.5 22.4 20.8 90 1.1 SW 22 28 12 15 1001.7 - 3.4
29/12:00am 22.5 22.9 21.0 91 1.0 SW 20 33 11 18 1002.0 1002.0 3.4
 
Date/Time
EDT
Temp
°C
App
Temp
°C
Dew
Point
Rel
Hum
%
Delta-T
°C
Wind Press
QNH
hPa
Press
MSL
hPa
Rain
since 9 am
mm
Dir
 
Spd
km/h
Gust
km/h
Spd
kts
Gust
kts
28/11:54pm 22.9 23.0 20.3 85 1.7 SW 20 32 11 17 1002.1 - 3.4
28/11:30pm 22.7 22.8 20.4 87 1.5 SW 20 32 11 17 1002.1 - 3.4
28/11:00pm 22.9 22.6 20.3 85 1.7 SSW 22 41 12 22 1002.2 - 3.4
28/10:40pm 23.0 22.9 19.9 83 2.0 SSW 20 32 11 17 1002.4 - 3.4
28/10:30pm 22.8 22.6 19.7 83 2.0 SSW 20 39 11 21 1002.2 - 3.4
28/10:26pm 22.6 22.2 20.1 86 1.6 SSW 22 39 12 21 1002.3 - 3.4
28/10:09pm 22.2 22.4 21.3 95 0.6 SW 22 35 12 19 1002.4 - 3.4
28/10:00pm 23.0 23.1 21.2 89 1.2 SSW 22 33 12 18 1002.4 - 3.4
28/09:30pm 23.3 24.0 21.6 90 1.1 SW 20 32 11 17 1002.0 - 3.4
28/09:00pm 23.6 24.8 22.1 91 1.0 SSW 19 33 10 18 1001.9 1001.9 3.4
28/08:30pm 24.1 26.1 22.3 90 1.2 SW 15 20 8 11 1001.7 - 3.4
28/08:00pm 23.9 25.1 22.1 90 1.2 SW 19 28 10 15 1001.6 - 3.4
28/07:43pm 23.7 25.9 21.9 90 1.2 SSW 13 20 7 11 1001.2 - 3.4
28/07:30pm 23.9 25.5 22.1 90 1.2 SW 17 24 9 13 1001.0 - 3.4
28/07:00pm 24.0 24.8 22.4 91 1.1 SW 22 32 12 17 1000.1 - 3.4
28/06:30pm 24.1 25.5 22.8 92 0.9 SW 20 30 11 16 1000.1 - 3.4
28/06:00pm 24.0 25.7 22.4 91 1.1 SW 17 22 9 12 999.7 999.7 3.4
28/05:34pm 24.0 25.2 22.5 91 1.0 SW 20 26 11 14 1000.3 - 3.4
28/05:30pm 24.1 25.4 22.6 91 1.0 SW 20 26 11 14 1000.3 - 3.4
28/05:00pm 24.1 25.5 22.8 92 0.9 SW 20 26 11 14 1000.7 - 3.4
28/04:30pm 24.1 25.2 23.1 94 0.7 WSW 22 30 12 16 1000.8 - 3.4
28/04:00pm 24.1 24.8 22.9 93 0.8 WSW 24 28 13 15 1000.8 - 3.4
28/03:32pm 24.3 25.0 23.0 92 0.9 WSW 24 30 13 16 1000.7 - 3.4
28/03:30pm 24.4 25.2 23.1 92 0.9 WSW 24 28 13 15 1000.7 - 3.4
28/03:09pm 24.9 26.3 22.8 88 1.4 WSW 20 24 11 13 1000.9 - 3.4
28/03:00pm 24.9 26.2 22.7 87 1.5 WSW 20 24 11 13 1000.8 1000.8 3.4
28/02:30pm 25.2 27.4 23.3 89 1.3 W 17 20 9 11 1001.1 - 3.4
28/02:24pm 25.0 27.3 23.4 91 1.1 WSW 17 19 9 10 1001.1 - 3.4
28/02:00pm 25.1 28.4 23.2 89 1.3 WSW 11 15 6 8 1001.2 - 3.4
28/01:30pm 24.5 28.2 23.2 92 0.9 SW 9 13 5 7 1001.4 - 3.4
28/01:00pm 25.4 29.3 23.6 90 1.2 E 9 13 5 7 1001.5 - 3.4
28/12:30pm 24.9 27.6 23.4 91 1.0 E 15 19 8 10 1001.6 - 3.4
28/12:17pm 25.2 27.3 23.7 91 1.0 E 19 22 10 12 1001.4 - 3.4
28/12:00pm 24.6 27.0 23.6 94 0.7 E 17 22 9 12 1001.5 1001.5 3.4
28/11:49am 24.6 27.0 23.7 95 0.6 E 17 22 9 12 1001.6 - 3.4
28/11:30am 24.2 25.0 23.2 94 0.7 E 24 32 13 17 1001.5 - 3.4
28/11:27am 24.2 24.5 23.0 93 0.8 E 26 32 14 17 1001.6 - 3.4
28/11:13am 24.1 24.9 23.2 95 0.6 E 24 35 13 19 1001.8 - 3.4
28/11:00am 24.2 26.5 22.7 91 1.0 SE 15 20 8 11 1002.2 - 3.2
28/10:50am 24.1 25.4 22.6 91 1.0 E 20 32 11 17 1002.2 - 3.2
28/10:30am 23.9 25.2 22.4 91 1.0 E 19 24 10 13 1002.4 - 3.2
28/10:00am 24.0 25.7 22.4 91 1.1 SSE 17 24 9 13 1002.3 - 3.2
28/09:41am 23.1 24.0 22.0 93 0.7 E 20 26 11 14 1002.7 - 3.2
28/09:30am 22.8 23.3 22.0 95 0.5 E 22 32 12 17 1002.8 - 3.0
28/09:00am 22.6 23.0 21.8 95 0.5 E 22 32 12 17 1002.8 1002.8 4.6
28/08:39am 23.8 26.9 22.2 91 1.1 SSE 9 24 5 13 1002.7 - 3.8
28/08:30am 24.6 28.1 22.1 86 1.7 SSW 7 11 4 6 1002.5 - 3.8
28/08:00am 23.3 26.0 22.1 93 0.8 SE 11 13 6 7 1002.4 - 3.8
28/07:30am 23.0 24.1 21.9 93 0.7 E 19 24 10 13 1002.5 - 3.8
28/07:24am 23.2 25.1 22.0 93 0.8 E 15 24 8 13 1002.6 - 3.8
28/07:00am 23.0 25.0 21.6 92 0.9 E 13 17 7 9 1002.4 - 3.8
28/06:45am 22.8 23.5 21.6 93 0.8 E 20 24 11 13 1002.4 - 3.8
28/06:30am 22.9 23.3 21.7 93 0.8 E 22 28 12 15 1002.3 - 3.8
28/06:00am 23.3 23.7 21.0 87 1.5 E 20 32 11 17 1002.3 1002.3 3.8
28/05:34am 23.2 23.8 21.4 90 1.2 E 20 24 11 13 1002.4 - 3.8
28/05:30am 23.1 23.7 21.3 90 1.2 E 20 24 11 13 1002.3 - 3.8
28/05:00am 23.2 23.7 21.1 88 1.4 E 20 24 11 13 1002.2 - 3.8
28/04:30am 23.1 22.8 21.1 88 1.3 E 24 30 13 16 1001.9 - 3.8
28/04:16am 23.0 23.3 21.6 92 0.9 ENE 22 32 12 17 1001.8 - 3.8
28/04:00am 23.0 22.7 21.8 93 0.8 ENE 26 32 14 17 1001.7 - 3.8
28/03:59am 23.0 22.7 21.9 93 0.7 ENE 26 32 14 17 1001.7 - 3.8
28/03:30am 23.2 22.6 22.0 93 0.8 ENE 28 32 15 17 1001.9 - 3.8
28/03:01am 22.9 23.3 21.8 93 0.7 ENE 22 30 12 16 1002.2 - 3.8
28/03:00am 22.8 23.3 21.9 95 0.6 ENE 22 30 12 16 1002.2 1002.2 3.8
28/02:30am 23.0 24.8 22.6 98 0.3 E 17 32 9 17 1002.7 - 3.2
28/02:01am 23.1 24.2 22.4 96 0.5 E 20 24 11 13 1002.9 - 2.2
28/02:00am 23.1 24.1 22.2 95 0.6 E 20 24 11 13 1002.9 - 2.2
28/01:30am 23.2 26.2 22.0 93 0.8 ESE 9 13 5 7 1003.0 - 2.2
28/01:20am 23.1 25.2 21.7 92 0.9 E 13 17 7 9 1003.2 - 2.2
28/01:13am 23.1 25.1 21.6 91 1.0 ESE 13 19 7 10 1003.3 - 2.2
28/01:00am 23.1 25.9 21.6 91 1.0 ESE 9 17 5 9 1003.4 - 2.2
28/12:58am 23.1 26.3 21.6 91 1.0 ESE 7 15 4 8 1003.5 - 2.2
28/12:39am 22.9 24.5 22.1 95 0.5 E 17 20 9 11 1003.6 - 2.2
28/12:37am 22.9 24.5 22.1 95 0.5 E 17 20 9 11 1003.6 - 2.0
28/12:30am 23.3 25.9 21.9 92 0.9 ESE 11 20 6 11 1003.6 - 1.4
28/12:00am 23.3 26.2 21.8 91 1.0 ESE 9 17 5 9 1003.8 1003.8 1.4
 
Date/Time
EDT
Temp
°C
App
Temp
°C
Dew
Point
Rel
Hum
%
Delta-T
°C
Wind Press
QNH
hPa
Press
MSL
hPa
Rain
since 9 am
mm
Dir
 
Spd
km/h
Gust
km/h
Spd
kts
Gust
kts
27/11:40pm 23.4 25.6 21.9 91 1.0 ESE 13 17 7 9 1004.0 - 1.4
27/11:30pm 23.4 26.0 22.0 92 0.9 ESE 11 17 6 9 1004.1 - 1.4
27/11:03pm 23.6 26.4 22.3 92 0.9 ESE 11 17 6 9 1004.2 - 1.4
27/11:00pm 23.6 26.8 22.3 92 0.9 ESE 9 17 5 9 1004.2 - 1.4
27/10:30pm 23.5 26.7 22.3 93 0.8 ESE 9 17 5 9 1004.4 - 0.8
27/10:04pm 23.6 25.3 22.4 93 0.8 E 17 26 9 14 1004.3 - 0.4
27/10:00pm 23.8 25.8 22.3 91 1.0 E 15 22 8 12 1004.3 - 0.4
27/09:30pm 23.8 26.2 22.2 91 1.1 ESE 13 24 7 13 1004.3 - 0.4
27/09:00pm 23.8 24.8 22.2 91 1.1 E 20 24 11 13 1004.0 1004.0 0.4
27/08:30pm 23.7 24.5 22.5 93 0.8 E 22 32 12 17 1003.7 - 0.4
27/08:00pm 23.8 27.1 22.6 93 0.8 ENE 9 19 5 10 1003.3 - 0.2
27/07:47pm 23.9 25.1 22.1 90 1.2 ESE 19 28 10 15 1003.2 - 0.2
27/07:46pm 23.9 25.1 22.1 90 1.2 ESE 19 28 10 15 1003.1 - 0.2
27/07:30pm 23.8 26.8 22.0 90 1.2 N 9 24 5 13 1003.3 - 0.2
27/07:21pm 23.9 26.5 21.9 88 1.3 E 11 19 6 10 1003.3 - 0.2
27/07:00pm 24.4 27.2 21.5 84 1.9 WNW 9 13 5 7 1003.4 - 0.0
27/06:30pm 24.5 25.7 21.5 83 2.0 ESE 17 28 9 15 1003.2 - 0.0
27/06:16pm 24.2 26.7 21.8 86 1.6 ESE 11 26 6 14 1003.0 - 0.0
27/06:00pm 24.2 26.8 22.0 87 1.5 SSW 11 17 6 9 1002.7 1002.7 0.0
27/05:54pm 24.5 26.3 21.8 85 1.8 SW 15 32 8 17 1002.8 - 0.0
27/05:30pm 25.2 26.2 21.0 77 2.8 S 17 30 9 16 1003.0 - 0.0
27/05:10pm 25.1 27.1 21.5 80 2.4 S 13 37 7 20 1003.1 - 0.0
27/05:00pm 24.7 26.3 22.2 86 1.7 SSW 17 32 9 17 1003.1 - 0.0
27/04:59pm 24.6 26.2 22.2 86 1.6 SSW 17 32 9 17 1003.1 - 0.0
27/04:30pm 25.3 27.8 21.7 80 2.4 SE 11 22 6 12 1003.1 - 0.0
27/04:00pm 25.2 27.0 21.1 78 2.7 SE 13 22 7 12 1003.4 - 0.0
27/03:30pm 24.5 25.5 21.8 85 1.8 SSW 19 32 10 17 1003.5 - 0.0
27/03:00pm 24.2 25.2 21.8 86 1.6 SSW 19 33 10 18 1003.8 1003.8 0.0
27/02:30pm 23.4 23.3 21.4 88 1.3 SSW 24 41 13 22 1004.1 - 0.0
27/02:00pm 23.8 22.8 21.2 85 1.7 SSW 28 41 15 22 1004.5 - 0.0
27/01:30pm 23.9 23.0 20.7 82 2.1 SSW 26 43 14 23 1004.9 - 0.0
27/01:24pm 23.6 22.4 20.9 85 1.8 SSW 28 43 15 23 1004.9 - 0.0
27/01:15pm 24.3 22.8 20.3 78 2.6 SSW 28 50 15 27 1005.0 - 0.0
27/12:58pm 24.0 22.8 20.8 82 2.1 SSW 28 52 15 28 1005.0 - 0.0
27/12:33pm 23.9 22.5 20.4 81 2.3 SSW 28 61 15 33 1005.3 - 0.0
27/12:30pm 24.2 22.8 20.5 80 2.4 SSW 28 43 15 23 1005.3 - 0.0
27/12:06pm 24.2 22.6 20.8 81 2.2 SSW 30 50 16 27 1005.6 - 0.0
27/12:00pm 24.0 22.5 21.0 83 2.0 SSW 30 44 16 24 1005.5 1005.5 0.0
27/11:30am 23.6 22.7 20.7 84 1.9 SSW 26 44 14 24 1005.7 - 0.0
27/11:17am 23.8 22.4 20.4 81 2.2 SSW 28 63 15 34 1005.9 - 0.0
27/11:00am 22.6 21.6 20.4 87 1.4 SW 26 54 14 29 1006.2 - 0.0
27/10:30am 23.1 21.5 20.0 83 2.0 SSW 28 50 15 27 1006.3 - 0.0
27/10:19am 24.2 22.3 19.4 74 3.1 SW 28 44 15 24 1006.3 - 0.0
27/10:00am 23.1 21.0 19.7 81 2.2 SSW 30 52 16 28 1006.5 - 0.0
27/09:30am 23.9 22.6 19.0 74 3.1 SSW 24 50 13 27 1006.5 - 0.0
27/09:00am 23.9 22.2 18.2 70 3.6 SSW 24 44 13 24 1006.5 1006.5 0.0
27/08:30am 23.8 22.5 18.1 70 3.6 SSW 22 43 12 23 1006.4 - 0.0
27/08:00am 23.8 22.3 18.6 72 3.3 SSW 24 46 13 25 1006.6 - 0.0
27/07:30am 23.4 21.2 18.8 75 2.9 SSW 28 48 15 26 1006.5 - 0.0
27/07:00am 23.1 20.9 18.8 77 2.7 SSW 28 48 15 26 1006.4 - 0.0
27/06:30am 23.1 21.4 18.0 73 3.2 SSW 24 46 13 25 1006.0 - 0.0
27/06:00am 22.9 23.2 17.9 73 3.1 S 13 26 7 14 1005.7 1005.7 0.0
27/05:30am 23.0 21.6 17.9 73 3.2 SSW 22 44 12 24 1005.7 - 0.0
27/05:00am 23.0 21.9 17.7 72 3.3 SSW 20 32 11 17 1005.8 - 0.0
27/04:30am 22.9 21.2 18.1 74 3.0 S 24 48 13 26 1005.7 - 0.0
27/04:00am 22.8 21.8 18.0 74 3.0 S 20 50 11 27 1005.9 - 0.0
27/03:30am 22.8 21.1 17.3 71 3.4 SSW 22 35 12 19 1006.0 - 0.0
27/03:00am 22.8 20.8 17.5 72 3.3 SSW 24 43 13 23 1006.5 1006.5 0.0
27/02:30am 22.7 21.0 18.1 75 2.9 SSW 24 44 13 24 1006.9 - 0.0
27/02:00am 22.9 22.4 17.8 73 3.2 SSW 17 35 9 19 1007.2 - 0.0
27/01:30am 23.0 22.0 17.9 73 3.2 S 20 35 11 19 1007.5 - 0.0
27/01:00am 22.8 23.4 17.7 73 3.2 ENE 11 24 6 13 1007.6 - 0.0
27/12:45am 23.0 22.8 17.7 72 3.3 ESE 15 28 8 15 1007.5 - 0.0
27/12:31am 23.2 22.9 18.3 74 3.1 SSE 17 28 9 15 1007.5 - 0.0
27/12:30am 23.2 22.9 18.3 74 3.1 S 17 26 9 14 1007.5 - 0.0
27/12:00am 23.4 24.0 18.7 75 3.0 NNE 13 28 7 15 1007.8 1007.8 0.0
 
Date/Time
EDT
Temp
°C
App
Temp
°C
Dew
Point
Rel
Hum
%
Delta-T
°C
Wind Press
QNH
hPa
Press
MSL
hPa
Rain
since 9 am
mm
Dir
 
Spd
km/h
Gust
km/h
Spd
kts
Gust
kts
26/11:30pm 23.5 23.1 18.1 71 3.4 SE 17 41 9 22 1008.0 - 0.0
26/11:00pm 23.7 24.3 18.6 73 3.2 SE 13 35 7 19 1008.5 - 0.0
26/10:47pm 23.6 23.7 18.4 72 3.3 SE 15 33 8 18 1008.4 - 0.0
26/10:37pm 24.0 21.4 17.9 68 3.8 S 28 65 15 35 1008.7 - 0.0
26/10:30pm 23.9 22.8 18.7 72 3.3 S 22 39 12 21 1008.7 - 0.0
26/10:00pm 24.1 23.5 18.9 72 3.3 S 20 39 11 21 1008.9 - 0.0
26/09:30pm 24.0 24.1 19.1 74 3.1 S 17 30 9 16 1008.8 - 0.0
26/09:00pm 24.3 26.1 19.6 75 3.0 SSE 9 13 5 7 1008.4 1008.4 0.0
26/08:46pm 24.4 25.4 19.4 73 3.2 SSE 13 30 7 16 1008.2 - 0.0
26/08:34pm 24.4 22.1 19.4 73 3.2 SW 30 50 16 27 1008.1 - 0.0
26/08:30pm 24.3 24.2 19.6 75 3.0 E 19 28 10 15 1008.0 - 0.0
26/08:17pm 24.5 25.3 19.0 71 3.5 NNE 13 32 7 17 1007.7 - 0.0
26/08:00pm 24.5 25.2 18.8 70 3.6 WSW 13 30 7 16 1007.6 - 0.0
26/07:30pm 24.5 25.6 20.4 78 2.7 S 15 46 8 25 1007.3 - 0.0
26/07:00pm 24.8 24.8 20.2 75 3.0 S 20 39 11 21 1007.1 - 0.0
26/06:30pm 25.2 25.4 20.1 73 3.3 S 19 32 10 17 1007.0 - 0.0
26/06:00pm 25.6 25.3 20.4 73 3.4 S 22 50 12 27 1006.6 1006.6 0.0
26/05:30pm 25.7 24.6 20.2 71 3.6 SSW 26 46 14 25 1006.4 - 0.0

Other Formats:

Comma delimited format used in spreadsheet applications
http://www.bom.gov.au/fwo/IDN60801/IDN60801.94995.axf

JavaScript Object Notation format (JSON) in row-major order
http://www.bom.gov.au/fwo/IDN60801/IDN60801.94995.json